createdAt,value
2018-04-19T00:00:50.859Z,13.13
2018-04-19T00:03:17.444Z,11.20
2018-04-19T00:05:43.993Z,13.13
2018-04-19T00:08:10.483Z,14.17
2018-04-19T00:10:37.024Z,12.87
2018-04-19T00:13:04.296Z,12.20
2018-04-19T00:15:30.861Z,14.90
2018-04-19T00:17:57.379Z,12.00
2018-04-19T00:20:23.905Z,12.70
2018-04-19T00:22:50.426Z,13.13
2018-04-19T00:25:16.993Z,11.23
2018-04-19T00:27:43.516Z,11.17
2018-04-19T00:30:10.049Z,11.33
2018-04-19T00:32:36.548Z,11.57
2018-04-19T00:35:03.100Z,11.87
2018-04-19T00:37:29.744Z,12.97
2018-04-19T00:39:56.270Z,13.53
2018-04-19T00:42:22.822Z,11.50
2018-04-19T00:44:49.339Z,14.13
2018-04-19T00:47:15.879Z,14.17
2018-04-19T00:49:42.418Z,12.60
2018-04-19T00:52:09.708Z,13.90
2018-04-19T00:54:36.249Z,12.17
2018-04-19T00:57:02.862Z,13.60
2018-04-19T00:59:29.391Z,14.33
2018-04-19T01:01:56.630Z,12.90
2018-04-19T01:04:23.912Z,14.87
2018-04-19T01:06:51.196Z,12.47
2018-04-19T01:09:17.724Z,11.83
2018-04-19T01:11:44.265Z,13.60
2018-04-19T01:14:10.795Z,13.30
2018-04-19T01:16:37.432Z,12.57
2018-04-19T01:19:03.992Z,10.33
2018-04-19T01:21:30.562Z,14.90
2018-04-19T01:23:57.833Z,12.50
2018-04-19T01:26:24.367Z,12.77
2018-04-19T01:28:50.901Z,11.70
2018-04-19T01:31:17.437Z,13.07
2018-04-19T01:33:43.940Z,12.30
2018-04-19T01:36:22.599Z,11.80
2018-04-19T01:38:49.199Z,11.77
2018-04-19T01:41:15.699Z,12.57
2018-04-19T01:43:42.296Z,12.83
2018-04-19T01:46:09.610Z,12.70
2018-04-19T01:48:36.149Z,11.57
2018-04-19T01:51:02.661Z,13.63
2018-04-19T01:53:29.197Z,17.30
2018-04-19T01:55:55.737Z,11.87
2018-04-19T01:58:22.229Z,13.80
2018-04-19T02:00:48.750Z,12.40
2018-04-19T02:03:16.044Z,11.90
2018-04-19T02:05:42.552Z,10.80
2018-04-19T02:08:09.169Z,11.33
2018-04-19T02:10:35.700Z,12.07
2018-04-19T02:13:02.221Z,12.40
2018-04-19T02:15:28.748Z,15.20
2018-04-19T02:17:55.270Z,11.00
2018-04-19T02:20:22.522Z,10.30
2018-04-19T02:22:49.069Z,9.77
2018-04-19T02:25:15.655Z,10.43
2018-04-19T02:27:42.220Z,10.03
2018-04-19T02:30:08.743Z,17.57
2018-04-19T02:32:35.253Z,10.93
2018-04-19T02:35:01.803Z,10.33
2018-04-19T02:37:28.324Z,9.90
2018-04-19T02:39:55.607Z,11.50
2018-04-19T02:42:22.172Z,10.70
2018-04-19T02:44:48.710Z,11.00
2018-04-19T02:47:15.228Z,10.10
2018-04-19T02:49:41.838Z,11.23
2018-04-19T02:52:08.401Z,13.03
2018-04-19T02:54:34.896Z,12.20
2018-04-19T02:57:01.411Z,12.90
2018-04-19T02:59:27.964Z,15.30
2018-04-19T03:01:54.503Z,14.23
2018-04-19T03:04:21.781Z,10.87
2018-04-19T03:06:48.374Z,14.53
2018-04-19T03:09:14.926Z,12.20
2018-04-19T03:11:41.457Z,10.40
2018-04-19T03:14:08.736Z,12.70
2018-04-19T03:16:35.269Z,10.70
2018-04-19T03:19:01.799Z,9.17
2018-04-19T03:21:28.342Z,12.63
2018-04-19T03:23:54.859Z,20.97
2018-04-19T03:26:22.193Z,13.83
2018-04-19T03:28:48.685Z,11.07
2018-04-19T03:31:15.283Z,11.03
2018-04-19T03:33:41.848Z,12.90
2018-04-19T03:36:08.385Z,12.47
2018-04-19T03:38:34.964Z,12.73
2018-04-19T03:41:01.472Z,13.00
2018-04-19T03:43:28.001Z,13.93
2018-04-19T03:45:54.503Z,13.40
2018-04-19T03:48:21.086Z,17.10
2018-04-19T03:50:47.643Z,14.27
2018-04-19T03:53:14.923Z,15.20
2018-04-19T03:55:41.504Z,19.90
2018-04-19T03:58:08.029Z,15.20
2018-04-19T04:00:34.565Z,14.57
2018-04-19T04:03:01.085Z,17.57
2018-04-19T04:05:28.326Z,16.03
2018-04-19T04:07:55.587Z,14.27
2018-04-19T04:10:22.117Z,13.37
2018-04-19T04:12:48.649Z,13.13
2018-04-19T04:15:16.001Z,19.63
2018-04-19T04:17:55.365Z,16.67
2018-04-19T04:20:34.122Z,12.03
2018-04-19T04:26:04.730Z,16.67
2018-04-19T04:28:31.261Z,12.87
2018-04-19T04:30:58.633Z,16.33
2018-04-19T04:33:25.233Z,14.17
2018-04-19T04:35:51.773Z,15.67
2018-04-19T04:38:18.285Z,20.90
2018-04-19T04:40:44.806Z,14.07
2018-04-19T04:43:11.357Z,18.83
2018-04-19T04:45:37.965Z,14.03
2018-04-19T04:48:04.501Z,15.87
2018-04-19T04:50:31.060Z,17.00
2018-04-19T04:52:57.646Z,12.93
2018-04-19T04:55:24.219Z,15.47
2018-04-19T04:57:50.752Z,12.73
2018-04-19T05:00:17.305Z,15.50
2018-04-19T05:02:43.813Z,18.13
2018-04-19T05:05:10.365Z,11.70
2018-04-19T05:07:36.946Z,19.97
2018-04-19T05:10:03.478Z,17.00
2018-04-19T05:12:29.989Z,14.80
2018-04-19T05:14:56.567Z,17.77
2018-04-19T05:17:23.881Z,17.63
2018-04-19T05:19:50.403Z,15.40
2018-04-19T05:22:16.925Z,17.43
2018-04-19T05:24:43.564Z,18.47
2018-04-19T05:27:10.128Z,17.77
2018-04-19T05:29:36.656Z,14.33
2018-04-19T05:32:03.956Z,21.47
2018-04-19T05:34:30.494Z,21.47
2018-04-19T05:36:57.005Z,19.90
2018-04-19T05:39:23.505Z,24.87
2018-04-19T05:41:50.096Z,24.53
2018-04-19T05:44:17.336Z,35.17
2018-04-19T05:46:44.599Z,32.87
2018-04-19T05:49:11.155Z,21.40
2018-04-19T05:51:37.672Z,26.97
2018-04-19T05:54:04.277Z,21.87
2018-04-19T05:56:30.809Z,19.03
2018-04-19T05:58:57.365Z,21.57
2018-04-19T06:01:23.952Z,21.17
2018-04-19T06:03:51.465Z,20.53
2018-04-19T06:06:18.830Z,19.33
2018-04-19T06:08:45.460Z,21.87
2018-04-19T06:11:12.011Z,26.87
2018-04-19T06:13:39.390Z,20.23
2018-04-19T06:16:05.936Z,16.80
2018-04-19T06:18:32.471Z,24.97
2018-04-19T06:20:59.011Z,26.43
2018-04-19T06:23:25.545Z,28.17
2018-04-19T06:25:52.107Z,27.00
2018-04-19T06:28:18.618Z,18.57
2018-04-19T06:30:45.297Z,24.97
2018-04-19T06:33:12.562Z,22.67
2018-04-19T06:35:39.814Z,18.57
2018-04-19T06:38:07.204Z,25.53
2018-04-19T06:40:33.766Z,24.83
2018-04-19T06:43:00.312Z,20.70
2018-04-19T06:45:26.848Z,19.90
2018-04-19T06:47:53.388Z,30.07
2018-04-19T06:50:19.934Z,25.07
2018-04-19T06:52:46.454Z,34.87
2018-04-19T06:55:13.015Z,21.13
2018-04-19T06:57:39.513Z,34.50
2018-04-19T07:00:06.087Z,20.20
2018-04-19T07:02:32.600Z,21.77
2018-04-19T07:04:59.150Z,17.27
2018-04-19T07:07:25.684Z,28.40
2018-04-19T07:09:52.209Z,16.97
2018-04-19T07:12:18.730Z,23.07
2018-04-19T07:14:45.341Z,22.67
2018-04-19T07:17:11.845Z,23.37
2018-04-19T07:19:39.112Z,15.87
2018-04-19T07:22:05.666Z,28.97
2018-04-19T07:24:32.301Z,21.53
2018-04-19T07:26:58.802Z,16.77
2018-04-19T07:29:26.062Z,15.43
2018-04-19T07:31:52.613Z,14.63
2018-04-19T07:34:19.912Z,16.40
2018-04-19T07:36:46.445Z,13.83
2018-04-19T07:39:12.973Z,18.17
2018-04-19T07:41:40.239Z,16.20
2018-04-19T07:44:07.495Z,11.03
2018-04-19T07:46:34.013Z,13.03
2018-04-19T07:49:00.572Z,16.80
2018-04-19T07:51:27.161Z,14.87
2018-04-19T07:53:53.624Z,8.40
2018-04-19T07:56:20.127Z,12.37
2018-04-19T07:58:46.628Z,11.50
2018-04-19T08:01:13.158Z,9.33
2018-04-19T08:03:39.709Z,12.20
2018-04-19T08:06:06.295Z,14.13
2018-04-19T08:08:32.857Z,13.48
2018-04-19T08:10:59.451Z,10.85
2018-04-19T08:13:25.995Z,8.88
2018-04-19T08:15:52.577Z,14.63
2018-04-19T08:18:19.155Z,10.68
2018-04-19T08:20:45.745Z,7.55
2018-04-19T08:23:12.250Z,9.68
2018-04-19T08:25:38.752Z,8.80
2018-04-19T08:28:05.283Z,10.57
2018-04-19T08:30:32.537Z,10.82
2018-04-19T08:32:59.867Z,7.25
2018-04-19T08:35:26.431Z,9.68
2018-04-19T08:37:52.988Z,5.82
2018-04-19T08:40:19.523Z,5.37
2018-04-19T08:42:46.056Z,9.02
2018-04-19T08:45:12.573Z,9.82
2018-04-19T08:47:39.194Z,13.68
2018-04-19T08:50:06.468Z,8.10
2018-04-19T08:52:33.025Z,8.00
2018-04-19T08:54:59.554Z,17.52
2018-04-19T08:57:26.095Z,17.75
2018-04-19T08:59:52.625Z,11.15
2018-04-19T09:02:19.148Z,13.75
2018-04-19T09:04:45.687Z,13.30
2018-04-19T09:07:12.199Z,21.45
2018-04-19T09:09:39.479Z,16.65
2018-04-19T09:12:05.993Z,12.30
2018-04-19T09:14:33.268Z,16.80
2018-04-19T09:16:59.855Z,13.95
2018-04-19T09:19:26.453Z,14.20
2018-04-19T09:21:53.020Z,13.00
2018-04-19T09:24:19.522Z,15.48
2018-04-19T09:26:46.096Z,17.20
2018-04-19T09:29:12.589Z,18.77
2018-04-19T09:31:39.182Z,18.73
2018-04-19T09:34:05.686Z,10.80
2018-04-19T09:36:32.236Z,10.45
2018-04-19T09:38:58.865Z,10.38
2018-04-19T09:41:25.454Z,18.23
2018-04-19T09:43:52.712Z,13.90
2018-04-19T09:46:19.207Z,12.25
2018-04-19T09:48:45.715Z,10.82
2018-04-19T09:51:12.270Z,8.45
2018-04-19T09:53:38.835Z,10.93
2018-04-19T09:56:05.387Z,11.10
2018-04-19T09:58:31.973Z,8.93
2018-04-19T10:01:08.482Z,7.50
2018-04-19T10:03:41.090Z,13.70
2018-04-19T10:06:07.656Z,6.97
2018-04-19T10:08:34.179Z,10.95
2018-04-19T10:11:00.771Z,5.60
2018-04-19T10:13:27.274Z,6.40
2018-04-19T10:15:53.914Z,6.30
2018-04-19T10:18:20.384Z,5.40
2018-04-19T10:20:47.702Z,7.32
2018-04-19T10:23:14.270Z,7.25
2018-04-19T10:25:41.516Z,7.35
2018-04-19T10:28:08.058Z,7.70
2018-04-19T10:30:34.626Z,10.20
2018-04-19T10:33:01.148Z,11.23
2018-04-19T10:35:27.659Z,8.52
2018-04-19T10:37:54.208Z,6.18
2018-04-19T10:40:21.478Z,8.27
2018-04-19T10:42:47.998Z,9.65
2018-04-19T10:45:15.240Z,8.68
2018-04-19T10:47:42.513Z,11.02
2018-04-19T10:50:09.013Z,7.00
2018-04-19T10:52:35.536Z,8.23
2018-04-19T10:55:02.805Z,6.97
2018-04-19T10:57:30.115Z,6.12
2018-04-19T10:59:56.623Z,8.07
2018-04-19T11:02:23.148Z,8.90
2018-04-19T11:04:50.393Z,13.75
2018-04-19T11:07:17.685Z,8.10
2018-04-19T11:09:44.281Z,6.10
2018-04-19T11:12:10.800Z,5.85
2018-04-19T11:14:37.389Z,11.50
2018-04-19T11:17:03.960Z,6.00
2018-04-19T11:19:30.490Z,5.12
2018-04-19T11:21:57.772Z,12.37
2018-04-19T11:24:24.302Z,7.22
2018-04-19T11:26:50.815Z,6.07
2018-04-19T11:29:17.352Z,7.90
2018-04-19T11:31:44.616Z,8.85
2018-04-19T11:34:11.148Z,8.68
2018-04-19T11:36:37.731Z,8.23
2018-04-19T11:39:04.312Z,10.52
2018-04-19T11:41:31.608Z,5.43
2018-04-19T11:43:58.125Z,4.40
2018-04-19T11:46:24.647Z,8.02
2018-04-19T11:48:51.156Z,5.93
2018-04-19T11:51:17.669Z,4.93
2018-04-19T11:53:44.284Z,5.45
2018-04-19T11:56:11.584Z,7.47
2018-04-19T11:58:38.095Z,6.45
2018-04-19T12:01:04.649Z,6.60
2018-04-19T12:03:31.152Z,6.25
2018-04-19T12:05:58.463Z,4.85
2018-04-19T12:08:24.977Z,7.53
2018-04-19T12:10:51.510Z,5.90
2018-04-19T12:13:18.109Z,8.20
2018-04-19T12:15:45.357Z,4.90
2018-04-19T12:18:12.606Z,6.90
2018-04-19T12:20:39.219Z,6.20
2018-04-19T12:23:05.840Z,5.28
2018-04-19T12:25:32.344Z,5.72
2018-04-19T12:27:58.850Z,6.95
2018-04-19T12:30:25.378Z,5.03
2018-04-19T12:32:51.941Z,7.75
2018-04-19T12:35:18.468Z,7.95
2018-04-19T12:37:45.772Z,8.38
2018-04-19T12:40:12.318Z,6.37
2018-04-19T12:42:39.632Z,11.32
2018-04-19T12:45:06.169Z,5.22
2018-04-19T12:47:32.695Z,6.10
2018-04-19T12:49:59.268Z,8.57
2018-04-19T12:52:25.815Z,11.77
2018-04-19T12:54:52.317Z,7.55
2018-04-19T12:57:18.878Z,6.03
2018-04-19T12:59:45.389Z,9.57
2018-04-19T13:02:11.897Z,6.07
2018-04-19T13:04:39.181Z,8.05
2018-04-19T13:07:05.814Z,7.15
2018-04-19T13:09:32.338Z,9.70
2018-04-19T13:11:59.617Z,9.98
2018-04-19T13:14:26.139Z,6.70
2018-04-19T13:16:52.663Z,5.10
2018-04-19T13:19:19.169Z,5.07
2018-04-19T13:21:45.672Z,5.32
2018-04-19T13:24:12.241Z,5.80
2018-04-19T13:26:38.747Z,6.78
2018-04-19T13:29:05.286Z,5.10
2018-04-19T13:31:31.794Z,7.62
2018-04-19T13:33:58.318Z,5.45
2018-04-19T13:36:24.841Z,5.47
2018-04-19T13:38:51.440Z,7.30
2018-04-19T13:41:18.005Z,5.55
2018-04-19T13:43:45.258Z,7.68
2018-04-19T13:46:11.770Z,5.90
2018-04-19T13:48:38.309Z,5.97
2018-04-19T13:51:04.875Z,4.68
2018-04-19T13:53:32.200Z,5.93
2018-04-19T13:55:58.702Z,9.07
2018-04-19T13:58:25.215Z,4.18
2018-04-19T14:00:51.782Z,8.52
2018-04-19T14:03:18.320Z,5.12
2018-04-19T14:05:44.916Z,9.00
2018-04-19T14:08:11.484Z,5.97
2018-04-19T14:10:37.997Z,3.53
2018-04-19T14:13:04.519Z,2.90
2018-04-19T14:15:31.071Z,7.20
2018-04-19T14:17:57.656Z,6.27
2018-04-19T14:20:24.224Z,7.73
2018-04-19T14:22:51.502Z,4.13
2018-04-19T14:25:18.013Z,7.27
2018-04-19T14:27:44.521Z,5.60
2018-04-19T14:30:11.024Z,2.50
2018-04-19T14:32:37.526Z,4.57
2018-04-19T14:35:04.819Z,3.73
2018-04-19T14:37:31.342Z,3.53
2018-04-19T14:39:57.919Z,7.20
2018-04-19T14:42:24.613Z,5.87
2018-04-19T14:44:51.163Z,3.17
2018-04-19T14:47:17.782Z,5.93
2018-04-19T14:49:44.311Z,6.63
2018-04-19T14:52:10.839Z,6.30
2018-04-19T14:54:37.498Z,4.53
2018-04-19T14:57:04.032Z,3.03
2018-04-19T14:59:30.609Z,5.17
2018-04-19T15:01:57.144Z,8.50
2018-04-19T15:04:23.672Z,4.20
2018-04-19T15:06:50.192Z,5.70
2018-04-19T15:09:16.749Z,5.03
2018-04-19T15:11:43.302Z,6.27
2018-04-19T15:14:09.826Z,4.47
2018-04-19T15:16:36.341Z,4.63
2018-04-19T15:19:02.874Z,11.27
2018-04-19T15:21:29.441Z,7.77
2018-04-19T15:23:56.194Z,4.60
2018-04-19T15:26:22.834Z,6.10
2018-04-19T15:28:49.392Z,7.77
2018-04-19T15:31:16.696Z,4.03
2018-04-19T15:33:43.221Z,7.60
2018-04-19T15:36:09.768Z,5.93
2018-04-19T15:38:36.307Z,6.40
2018-04-19T15:41:02.881Z,4.57
2018-04-19T15:43:30.204Z,4.07
2018-04-19T15:45:56.757Z,8.77
2018-04-19T15:48:23.296Z,8.30
2018-04-19T15:50:50.589Z,7.50
2018-04-19T15:53:17.149Z,5.53
2018-04-19T15:55:43.682Z,3.20
2018-04-19T15:58:10.240Z,4.20
2018-04-19T16:00:36.760Z,2.67
2018-04-19T16:03:03.298Z,6.53
2018-04-19T16:05:29.833Z,4.27
2018-04-19T16:07:56.437Z,4.50
2018-04-19T16:10:22.961Z,6.17
2018-04-19T16:12:49.482Z,4.10
2018-04-19T16:15:16.605Z,4.87
2018-04-19T16:17:43.126Z,6.20
2018-04-19T16:20:09.643Z,4.27
2018-04-19T16:22:36.152Z,10.83
2018-04-19T16:25:02.769Z,2.17
2018-04-19T16:27:29.328Z,4.37
2018-04-19T16:29:55.929Z,2.70
2018-04-19T16:32:22.467Z,3.20
2018-04-19T16:34:49.008Z,4.70
2018-04-19T16:37:15.560Z,5.60
2018-04-19T16:39:42.819Z,3.60
2018-04-19T16:42:10.125Z,4.03
2018-04-19T16:44:36.703Z,3.07
2018-04-19T16:47:04.202Z,4.57
2018-04-19T16:49:30.763Z,4.50
2018-04-19T16:51:57.319Z,5.37
2018-04-19T16:54:24.618Z,2.83
2018-04-19T16:56:51.138Z,4.43
2018-04-19T16:59:18.380Z,3.30
2018-04-19T17:01:44.951Z,4.87
2018-04-19T17:04:11.580Z,5.67
2018-04-19T17:06:38.161Z,4.13
2018-04-19T17:09:05.746Z,8.63
2018-04-19T17:11:33.021Z,9.53
2018-04-19T17:13:59.577Z,7.80
2018-04-19T17:16:26.102Z,5.60
2018-04-19T17:18:52.709Z,19.37
2018-04-19T17:21:19.976Z,6.83
2018-04-19T17:23:46.545Z,4.47
2018-04-19T17:26:13.129Z,5.23
2018-04-19T17:28:39.709Z,7.90
2018-04-19T17:31:06.314Z,11.90
2018-04-19T17:33:33.610Z,5.87
2018-04-19T17:36:00.155Z,6.57
2018-04-19T17:38:27.451Z,11.20
2018-04-19T17:40:54.713Z,6.97
2018-04-19T17:43:21.309Z,8.53
2018-04-19T17:45:47.896Z,8.27
2018-04-19T17:48:14.408Z,6.20
2018-04-19T17:50:41.730Z,3.97
2018-04-19T17:53:08.299Z,4.57
2018-04-19T17:55:34.938Z,10.17
2018-04-19T17:58:01.691Z,12.30
2018-04-19T18:00:28.953Z,10.97
2018-04-19T18:02:55.560Z,8.30
2018-04-19T18:05:22.096Z,12.57
2018-04-19T18:07:52.009Z,10.00
2018-04-19T18:10:19.358Z,13.70
2018-04-19T18:12:46.035Z,10.53
2018-04-19T18:15:13.321Z,10.77
2018-04-19T18:17:39.920Z,11.07
2018-04-19T18:20:06.452Z,10.73
2018-04-19T18:22:33.801Z,12.27
2018-04-19T18:25:01.127Z,8.03
2018-04-19T18:27:28.599Z,12.57
2018-04-19T18:29:55.136Z,9.27
2018-04-19T18:32:21.698Z,7.37
2018-04-19T18:34:50.300Z,8.33
2018-04-19T18:37:17.802Z,7.37
2018-04-19T18:39:44.354Z,7.53
2018-04-19T18:42:10.874Z,4.20
2018-04-19T18:44:38.338Z,10.60
2018-04-19T18:47:04.870Z,4.83
2018-04-19T18:49:31.417Z,5.93
2018-04-19T18:51:58.028Z,5.27
2018-04-19T18:54:24.541Z,7.83
2018-04-19T18:56:51.062Z,7.13
2018-04-19T18:59:17.904Z,8.43
2018-04-19T19:01:45.239Z,6.73
2018-04-19T19:04:12.512Z,7.23
2018-04-19T19:06:39.100Z,5.63
2018-04-19T19:09:05.750Z,7.63
2018-04-19T19:11:32.261Z,5.13
2018-04-19T19:13:59.181Z,3.73
2018-04-19T19:16:25.716Z,4.60
2018-04-19T19:19:04.466Z,5.33
2018-04-19T19:21:31.001Z,7.43
2018-04-19T19:23:57.625Z,5.90
2018-04-19T19:26:24.175Z,7.03
2018-04-19T19:28:50.711Z,5.57
2018-04-19T19:31:17.352Z,8.37
2018-04-19T19:33:43.935Z,10.13
2018-04-19T19:36:11.242Z,9.17
2018-04-19T19:38:37.849Z,6.33
2018-04-19T19:41:04.399Z,7.97
2018-04-19T19:43:30.957Z,10.60
2018-04-19T19:45:57.649Z,6.83
2018-04-19T19:48:24.505Z,3.97
2018-04-19T19:50:51.046Z,4.47
2018-04-19T19:53:17.642Z,9.53
2018-04-19T19:55:45.017Z,6.03
2018-04-19T19:58:11.693Z,6.00
2018-04-19T20:00:38.317Z,5.03
2018-04-19T20:03:05.015Z,4.17
2018-04-19T20:05:32.427Z,5.00
2018-04-19T20:07:58.944Z,4.40
2018-04-19T20:10:25.554Z,4.33
2018-04-19T20:12:52.078Z,4.70
2018-04-19T20:15:18.624Z,5.83
2018-04-19T20:17:45.178Z,4.63
2018-04-19T20:20:11.717Z,5.40
2018-04-19T20:22:38.337Z,5.73
2018-04-19T20:25:05.640Z,5.50
2018-04-19T20:27:32.187Z,7.10
2018-04-19T20:29:58.797Z,3.40
2018-04-19T20:32:25.325Z,4.77
2018-04-19T20:34:52.716Z,7.13
2018-04-19T20:37:19.269Z,6.67
2018-04-19T20:39:45.898Z,3.97
2018-04-19T20:42:12.420Z,5.03
2018-04-19T20:44:38.957Z,7.10
2018-04-19T20:47:05.530Z,3.57
2018-04-19T20:49:32.089Z,4.23
2018-04-19T20:51:58.596Z,4.83
2018-04-19T20:54:25.157Z,6.50
2018-04-19T20:56:51.717Z,4.17
2018-04-19T20:59:18.273Z,8.43
2018-04-19T21:01:44.939Z,6.33
2018-04-19T21:04:11.489Z,8.30
2018-04-19T21:06:38.924Z,12.77
2018-04-19T21:09:05.600Z,6.60
2018-04-19T21:11:32.300Z,13.27
2018-04-19T21:13:58.844Z,5.53
2018-04-19T21:16:25.536Z,4.70
2018-04-19T21:18:52.157Z,5.77
2018-04-19T21:21:18.721Z,5.27
2018-04-19T21:23:45.310Z,8.53
2018-04-19T21:26:11.932Z,6.00
2018-04-19T21:28:38.558Z,6.77
2018-04-19T21:31:05.117Z,5.70
2018-04-19T21:33:31.692Z,8.90
2018-04-19T21:35:58.266Z,6.50
2018-04-19T21:38:24.826Z,4.30
2018-04-19T21:40:51.356Z,4.90
2018-04-19T21:43:17.890Z,6.73
2018-04-19T21:45:44.492Z,4.80
2018-04-19T21:48:11.033Z,6.63
2018-04-19T21:50:37.590Z,6.17
2018-04-19T21:53:05.238Z,7.23
2018-04-19T21:55:31.810Z,4.00
2018-04-19T21:57:58.478Z,5.93
2018-04-19T22:00:25.152Z,5.10
2018-04-19T22:02:51.769Z,4.10
2018-04-19T22:05:18.370Z,4.43
2018-04-19T22:07:45.821Z,4.87
2018-04-19T22:10:12.336Z,6.07
2018-04-19T22:12:38.878Z,4.47
2018-04-19T22:15:05.473Z,4.13
2018-04-19T22:17:32.032Z,8.37
2018-04-19T22:19:58.669Z,5.33
2018-04-19T22:22:25.211Z,3.47
2018-04-19T22:24:51.790Z,4.20
2018-04-19T22:27:18.368Z,5.53
2018-04-19T22:29:44.900Z,5.97
2018-04-19T22:32:11.428Z,4.30
2018-04-19T22:34:37.956Z,10.37
2018-04-19T22:37:04.507Z,4.63
2018-04-19T22:39:31.080Z,7.50
2018-04-19T22:41:57.681Z,4.23
2018-04-19T22:44:25.566Z,4.40
2018-04-19T22:46:52.955Z,4.13
2018-04-19T22:49:19.489Z,6.00
2018-04-19T22:51:46.832Z,6.23
2018-04-19T22:54:13.375Z,6.27
2018-04-19T22:56:40.517Z,4.03
2018-04-19T22:59:07.105Z,9.13
2018-04-19T23:01:33.620Z,3.87
2018-04-19T23:04:00.882Z,7.93
2018-04-19T23:06:27.454Z,4.53
2018-04-19T23:08:53.983Z,6.60
2018-04-19T23:11:20.550Z,4.97
2018-04-19T23:13:47.155Z,6.87
2018-04-19T23:16:13.737Z,6.67
2018-04-19T23:18:40.259Z,5.70
2018-04-19T23:21:06.789Z,9.90
2018-04-19T23:23:33.328Z,6.83
2018-04-19T23:25:59.918Z,7.67
2018-04-19T23:28:26.489Z,8.67
2018-04-19T23:30:53.765Z,10.30
2018-04-19T23:33:20.316Z,4.33
2018-04-19T23:35:47.616Z,6.90
2018-04-19T23:38:14.151Z,7.10
2018-04-19T23:40:41.486Z,9.53
2018-04-19T23:43:08.051Z,8.50
2018-04-19T23:45:34.642Z,6.37
2018-04-19T23:48:01.955Z,5.70
2018-04-19T23:50:28.522Z,5.73
2018-04-19T23:52:55.104Z,8.20
2018-04-19T23:55:21.684Z,5.63
2018-04-19T23:57:48.267Z,6.43
